Time;durP1;ratioP1;P1;durP2;ratioP2;P2;SDS_P1;SDS_P2;PMS_P1;PMS_P2;Temp;Humidity;BMP_temperature;BMP_pressure;BME280_temperature;BME280_humidity;BME280_pressure;Samples;Min_cycle;Max_cycle;Signal;HPM_P1;HPM_P2
2023/11/10 00:00:34;;;;;;;4.00;2.80;;;;;;;2.79;82.19;96012.12;108581;1269;22570;-74
2023/11/10 00:03:25;;;;;;;4.40;2.40;;;;;;;2.72;82.50;96022.47;108630;1275;22527;-74
2023/11/10 00:05:56;;;;;;;3.90;2.40;;;;;;;2.72;82.81;96022.41;108595;1268;22531;-74
2023/11/10 00:08:27;;;;;;;7.60;3.40;;;;;;;2.73;83.04;96024.20;108612;1274;22531;-74
2023/11/10 00:10:59;;;;;;;5.10;3.20;;;;;;;2.76;83.09;96019.78;108576;1268;23284;-74
2023/11/10 00:13:30;;;;;;;5.00;3.10;;;;;;;2.84;83.39;96013.97;108594;1275;26985;-74
2023/11/10 00:16:01;;;;;;;6.90;5.40;;;;;;;2.94;83.68;96016.30;108612;1272;22542;-74
2023/11/10 00:18:32;;;;;;;7.60;4.90;;;;;;;3.08;84.01;96008.23;108599;1275;26571;-74
2023/11/10 00:21:05;;;;;;;4.50;3.10;;;;;;;3.24;83.84;96009.30;108597;1267;22523;-74
2023/11/10 00:23:37;;;;;;;3.60;2.80;;;;;;;3.28;83.69;96012.44;108642;1275;22523;-74
2023/11/10 00:26:07;;;;;;;6.80;4.00;;;;;;;3.23;83.38;96015.25;108617;1275;22600;-74
2023/11/10 00:28:40;;;;;;;7.50;3.90;;;;;;;3.08;83.34;96004.97;108635;1268;22553;-74
2023/11/10 00:31:11;;;;;;;6.30;4.40;;;;;;;3.04;83.77;96006.71;108612;1268;22532;-74
2023/11/10 00:33:41;;;;;;;7.20;5.10;;;;;;;3.14;84.18;96011.91;108631;1271;22543;-74
2023/11/10 00:36:13;;;;;;;9.80;7.10;;;;;;;3.16;83.97;96012.62;108606;1268;22544;-74
2023/11/10 00:38:44;;;;;;;8.30;5.30;;;;;;;3.17;84.13;96012.52;108591;1267;22524;-74
2023/11/10 00:41:16;;;;;;;6.50;5.40;;;;;;;3.19;84.15;96010.85;108596;1267;22560;-74
2023/11/10 00:43:49;;;;;;;4.60;3.50;;;;;;;3.19;84.13;96019.19;108596;1269;22677;-74
2023/11/10 00:46:20;;;;;;;11.60;9.10;;;;;;;3.21;84.16;96005.89;108583;1275;23003;-74
2023/11/10 00:48:51;;;;;;;6.10;4.20;;;;;;;3.24;84.24;96000.86;108587;1275;25421;-74
2023/11/10 00:51:22;;;;;;;8.20;4.80;;;;;;;3.27;84.22;96001.63;108589;1275;22524;-74
2023/11/10 00:53:54;;;;;;;5.50;3.40;;;;;;;3.39;84.33;95993.20;108592;1275;25243;-74
2023/11/10 00:56:24;;;;;;;4.80;3.30;;;;;;;3.52;84.21;95983.33;108593;1275;22553;-74
2023/11/10 00:58:59;;;;;;;4.30;2.80;;;;;;;3.54;83.90;95981.40;108559;1275;22548;-74
2023/11/10 01:01:30;;;;;;;5.50;3.20;;;;;;;3.49;83.88;95980.96;108591;1267;22577;-74
2023/11/10 01:04:01;;;;;;;7.40;5.90;;;;;;;3.55;84.16;95975.02;108597;1267;22570;-75
2023/11/10 01:06:33;;;;;;;6.20;3.70;;;;;;;3.64;84.16;95975.35;108576;1271;25371;-74
2023/11/10 01:09:04;;;;;;;5.50;3.30;;;;;;;3.64;84.01;95969.27;108610;1272;24156;-74
2023/11/10 01:11:35;;;;;;;5.00;3.50;;;;;;;3.58;83.94;95964.29;108575;1269;25422;-74
2023/11/10 01:14:06;;;;;;;5.40;3.20;;;;;;;3.50;83.87;95964.79;108602;1275;22609;-74
2023/11/10 01:16:37;;;;;;;5.10;3.50;;;;;;;3.42;84.17;95962.73;108621;1267;22655;-74
2023/11/10 01:19:08;;;;;;;4.40;3.00;;;;;;;3.37;84.09;95961.39;108580;1274;24367;-74
2023/11/10 01:21:40;;;;;;;7.80;5.00;;;;;;;3.36;84.36;95960.89;108609;1275;22536;-74
2023/11/10 01:24:11;;;;;;;8.30;5.00;;;;;;;3.49;84.74;95958.91;108535;1253;22533;-74
2023/11/10 01:26:42;;;;;;;8.40;4.50;;;;;;;3.60;84.71;95963.77;108566;1275;23494;-74
2023/11/10 01:29:13;;;;;;;6.40;3.90;;;;;;;3.67;84.73;95959.42;108536;1275;22641;-74
2023/11/10 01:31:45;;;;;;;5.50;4.10;;;;;;;3.74;84.71;95954.52;108545;1273;22524;-74
2023/11/10 01:34:18;;;;;;;5.70;3.90;;;;;;;3.82;84.71;95951.59;108582;1272;22531;-74
2023/11/10 01:36:49;;;;;;;6.00;3.70;;;;;;;3.85;84.43;95951.66;108574;1275;24366;-74
2023/11/10 01:39:21;;;;;;;6.00;3.50;;;;;;;3.75;84.06;95946.55;108603;1275;25345;-74
2023/11/10 01:41:52;;;;;;;7.50;3.50;;;;;;;3.64;84.37;95948.91;108566;1269;23662;-74
2023/11/10 01:44:23;;;;;;;6.40;3.80;;;;;;;3.61;84.69;95944.60;108583;1274;22535;-74
2023/11/10 01:46:55;;;;;;;6.90;4.50;;;;;;;3.64;84.89;95950.75;108566;1269;22566;-74
2023/11/10 01:49:28;;;;;;;6.70;4.70;;;;;;;3.68;85.08;95946.61;108593;1269;27008;-74
2023/11/10 01:52:00;;;;;;;4.00;3.10;;;;;;;3.73;85.23;95950.15;108602;1275;22523;-74
2023/11/10 01:54:35;;;;;;;5.50;4.00;;;;;;;3.80;85.36;95950.05;108635;1275;22558;-74
2023/11/10 01:57:09;;;;;;;4.90;3.50;;;;;;;3.88;85.26;95947.90;108640;1275;22524;-74
2023/11/10 01:59:46;;;;;;;6.10;3.90;;;;;;;3.98;85.41;95945.61;108614;1268;22538;-74
2023/11/10 02:02:17;;;;;;;4.30;3.20;;;;;;;4.15;85.44;95933.29;108560;1268;22971;-74
2023/11/10 02:04:49;;;;;;;4.10;3.00;;;;;;;4.21;85.25;95938.60;108622;1269;22555;-74
2023/11/10 02:07:21;;;;;;;5.80;4.10;;;;;;;4.23;85.28;95936.37;108598;1275;23749;-74
2023/11/10 02:09:53;;;;;;;5.80;4.70;;;;;;;4.24;85.57;95930.67;108628;1274;22529;-73
2023/11/10 02:12:24;;;;;;;5.40;3.50;;;;;;;4.29;85.43;95929.27;108571;1269;22524;-74
2023/11/10 02:14:55;;;;;;;6.20;3.90;;;;;;;4.42;85.44;95923.40;108601;1272;22545;-74
2023/11/10 02:17:26;;;;;;;7.10;5.10;;;;;;;4.54;85.21;95915.42;108602;1268;22546;-74
2023/11/10 02:19:57;;;;;;;6.20;3.70;;;;;;;4.65;85.16;95902.66;108611;1275;22535;-74
2023/11/10 02:22:28;;;;;;;6.00;4.10;;;;;;;4.78;85.05;95901.02;108586;1268;27618;-74
2023/11/10 02:25:02;;;;;;;7.10;3.70;;;;;;;4.79;84.85;95902.23;108618;1275;22534;-74
2023/11/10 02:27:34;;;;;;;6.30;3.90;;;;;;;4.76;84.87;95896.70;108640;1271;22528;-74
2023/11/10 02:30:06;;;;;;;6.30;3.70;;;;;;;4.72;84.87;95896.27;108604;1274;22549;-74
2023/11/10 02:32:38;;;;;;;5.00;3.90;;;;;;;4.71;84.95;95891.96;108660;1275;22524;-74
2023/11/10 02:35:11;;;;;;;6.20;3.90;;;;;;;4.74;84.96;95885.83;108610;1275;25441;-74
2023/11/10 02:37:42;;;;;;;4.90;3.60;;;;;;;4.75;84.96;95879.52;108667;1269;24398;-74
2023/11/10 02:40:14;;;;;;;4.60;3.40;;;;;;;4.76;84.71;95878.10;108598;1268;22531;-74
2023/11/10 02:42:45;;;;;;;5.00;3.80;;;;;;;4.77;84.54;95877.85;108611;1269;25301;-74
2023/11/10 02:45:17;;;;;;;5.80;3.50;;;;;;;4.75;84.49;95869.49;108587;1269;22705;-74
2023/11/10 02:47:48;;;;;;;4.90;4.10;;;;;;;4.76;84.53;95869.70;108618;1275;22541;-74
2023/11/10 02:50:19;;;;;;;4.80;3.40;;;;;;;4.79;84.60;95872.92;108592;1268;22550;-74
2023/11/10 02:52:50;;;;;;;4.40;3.20;;;;;;;4.88;84.62;95869.95;108589;1268;26346;-74
2023/11/10 02:55:22;;;;;;;3.90;3.00;;;;;;;4.97;84.75;95867.88;108614;1275;25425;-74
2023/11/10 02:57:53;;;;;;;5.70;3.40;;;;;;;5.11;84.82;95867.78;108627;1275;22534;-74
2023/11/10 03:00:25;;;;;;;5.90;3.40;;;;;;;5.26;84.71;95866.91;108555;1269;24481;-74
2023/11/10 03:02:56;;;;;;;3.20;2.70;;;;;;;5.35;84.47;95854.08;108646;1275;22540;-75
2023/11/10 03:05:27;;;;;;;4.20;3.00;;;;;;;5.49;84.57;95850.08;108605;1275;22527;-74
2023/11/10 03:07:58;;;;;;;5.50;3.00;;;;;;;5.62;84.67;95848.38;108596;1275;24277;-74
2023/11/10 03:10:30;;;;;;;3.70;2.50;;;;;;;5.80;84.69;95851.35;108637;1268;22694;-74
2023/11/10 03:13:01;;;;;;;4.40;2.90;;;;;;;5.94;84.62;95851.14;108603;1265;26456;-74
2023/11/10 03:15:32;;;;;;;4.70;3.00;;;;;;;6.02;84.30;95847.59;108629;1274;22527;-74
2023/11/10 03:18:04;;;;;;;3.80;2.90;;;;;;;6.05;83.95;95844.95;108642;1275;22517;-74
2023/11/10 03:20:35;;;;;;;4.80;2.70;;;;;;;6.01;83.89;95848.39;108639;1274;22581;-74
2023/11/10 03:23:06;;;;;;;4.40;2.60;;;;;;;5.95;83.58;95842.41;108565;1269;22550;-74
2023/11/10 03:25:37;;;;;;;3.40;2.90;;;;;;;5.94;83.70;95838.69;108635;1275;22524;-74
2023/11/10 03:28:08;;;;;;;3.00;2.20;;;;;;;5.99;83.74;95836.50;108617;1275;24390;-74
2023/11/10 03:30:39;;;;;;;5.00;2.80;;;;;;;6.08;83.81;95828.59;108578;1275;25401;-74
2023/11/10 03:33:10;;;;;;;4.50;2.80;;;;;;;6.15;83.70;95832.97;108593;1275;22532;-74
2023/11/10 03:35:41;;;;;;;3.50;2.80;;;;;;;6.19;83.49;95828.40;108604;1271;22535;-74
2023/11/10 03:38:12;;;;;;;3.50;2.40;;;;;;;6.18;83.12;95821.85;108616;1275;22524;-74
2023/11/10 03:40:44;;;;;;;4.50;2.40;;;;;;;6.18;83.03;95808.58;108577;1275;25529;-74
2023/11/10 03:43:16;;;;;;;5.70;3.00;;;;;;;6.15;82.94;95803.49;108583;1275;24852;-75
2023/11/10 03:45:48;;;;;;;4.70;2.50;;;;;;;6.13;82.80;95797.41;108616;1275;26621;-74
2023/11/10 03:48:19;;;;;;;7.00;2.70;;;;;;;6.10;82.87;95794.42;108614;1275;23260;-74
2023/11/10 03:50:50;;;;;;;4.60;2.50;;;;;;;6.11;82.86;95792.89;108551;1275;22529;-74
2023/11/10 03:53:22;;;;;;;3.80;2.60;;;;;;;6.19;82.86;95789.60;108625;1267;22577;-74
2023/11/10 03:55:54;;;;;;;3.10;2.30;;;;;;;6.25;82.75;95788.41;108637;1275;26703;-74
2023/11/10 03:58:25;;;;;;;5.10;2.40;;;;;;;6.34;82.54;95787.11;108600;1272;22986;-74
2023/11/10 04:00:56;;;;;;;3.20;2.00;;;;;;;6.44;82.30;95786.89;108596;1274;23078;-74
2023/11/10 04:03:27;;;;;;;3.70;2.00;;;;;;;6.58;82.47;95779.29;108606;1275;22517;-74
2023/11/10 04:05:58;;;;;;;5.10;2.30;;;;;;;6.81;82.25;95776.77;108602;1267;22524;-74
2023/11/10 04:08:29;;;;;;;4.40;2.20;;;;;;;6.95;81.86;95768.77;108578;1275;25443;-74
2023/11/10 04:11:01;;;;;;;4.30;2.30;;;;;;;7.03;81.64;95766.96;108617;1275;22537;-74
2023/11/10 04:13:33;;;;;;;3.60;2.00;;;;;;;7.11;81.38;95768.79;108630;1272;22960;-74
2023/11/10 04:16:04;;;;;;;2.80;2.00;;;;;;;7.21;81.01;95761.29;108599;1267;22726;-74
2023/11/10 04:18:37;;;;;;;3.10;2.10;;;;;;;7.31;80.82;95768.05;108595;1275;22634;-74
2023/11/10 04:21:08;;;;;;;2.80;2.20;;;;;;;7.34;80.40;95767.86;108595;1275;22959;-74
2023/11/10 04:23:41;;;;;;;2.10;1.80;;;;;;;7.41;80.15;95766.95;108584;1275;25484;-74
2023/11/10 04:26:13;;;;;;;2.80;1.90;;;;;;;7.41;79.80;95762.14;108587;1267;22539;-74
2023/11/10 04:28:47;;;;;;;2.50;1.90;;;;;;;7.45;79.60;95757.56;108630;1275;23386;-74
2023/11/10 04:31:18;;;;;;;3.20;2.10;;;;;;;7.44;79.27;95754.58;108586;1275;22538;-74
2023/11/10 04:33:49;;;;;;;5.10;1.90;;;;;;;7.45;79.18;95754.52;108591;1275;25467;-74
2023/11/10 04:36:20;;;;;;;3.30;2.00;;;;;;;7.48;78.86;95752.48;108604;1275;22524;-74
2023/11/10 04:39:00;;;;;;;3.20;1.80;;;;;;;7.53;78.75;95750.80;108586;1272;25410;-74
2023/11/10 04:41:33;;;;;;;2.50;1.50;;;;;;;7.59;78.50;95751.69;108596;1267;22539;-74
2023/11/10 04:44:04;;;;;;;2.50;1.50;;;;;;;7.60;78.28;95750.67;108599;1275;22945;-74
2023/11/10 04:46:35;;;;;;;4.20;2.00;;;;;;;7.60;78.04;95752.90;108615;1275;22585;-74
2023/11/10 04:49:06;;;;;;;2.40;1.70;;;;;;;7.58;78.00;95744.55;108610;1274;25429;-74
2023/11/10 04:51:38;;;;;;;1.90;1.70;;;;;;;7.61;77.99;95746.34;108564;1275;22527;-74
2023/11/10 04:54:11;;;;;;;2.50;1.70;;;;;;;7.66;77.83;95749.20;108572;1275;25321;-74
2023/11/10 04:56:47;;;;;;;5.20;2.30;;;;;;;7.72;77.70;95747.84;108614;1275;22520;-74
2023/11/10 04:59:18;;;;;;;2.90;1.60;;;;;;;7.73;77.44;95748.67;108587;1269;22543;-74
2023/11/10 05:01:49;;;;;;;4.60;1.80;;;;;;;7.70;77.39;95747.66;108577;1272;24425;-74
2023/11/10 05:04:20;;;;;;;2.80;1.90;;;;;;;7.70;77.44;95741.95;108587;1269;22521;-74
2023/11/10 05:06:51;;;;;;;4.80;1.90;;;;;;;7.74;77.21;95744.19;108613;1274;22520;-74
2023/11/10 05:09:22;;;;;;;2.90;1.70;;;;;;;7.76;77.09;95744.08;108584;1275;24194;-74
2023/11/10 05:11:53;;;;;;;2.50;1.80;;;;;;;7.73;77.08;95738.48;108580;1275;22710;-74
2023/11/10 05:14:24;;;;;;;2.40;1.70;;;;;;;7.74;77.05;95742.55;108616;1253;22550;-74
2023/11/10 05:16:56;;;;;;;2.30;1.40;;;;;;;7.76;76.83;95739.48;108638;1272;25269;-74
2023/11/10 05:19:27;;;;;;;4.60;1.80;;;;;;;7.77;76.83;95732.24;108581;1274;22539;-74
2023/11/10 05:21:58;;;;;;;2.50;1.70;;;;;;;7.82;76.62;95734.60;108610;1271;22524;-74
2023/11/10 05:24:30;;;;;;;2.50;1.80;;;;;;;7.83;76.39;95734.13;108595;1274;23059;-74
2023/11/10 05:27:01;;;;;;;2.20;1.60;;;;;;;7.83;76.24;95732.59;108576;1275;22529;-74
2023/11/10 05:29:32;;;;;;;2.40;1.60;;;;;;;7.84;76.31;95727.83;108609;1269;22521;-74
2023/11/10 05:32:04;;;;;;;2.00;1.60;;;;;;;7.87;76.26;95732.85;108591;1272;24229;-74
2023/11/10 05:34:37;;;;;;;2.00;1.60;;;;;;;7.89;76.29;95734.12;108585;1252;22652;-74
2023/11/10 05:37:10;;;;;;;3.00;1.80;;;;;;;7.94;76.21;95731.95;108665;1271;22541;-74
2023/11/10 05:39:41;;;;;;;2.70;1.60;;;;;;;7.96;76.06;95739.50;108576;1267;23448;-74
2023/11/10 05:42:12;;;;;;;2.50;1.60;;;;;;;7.96;76.02;95736.45;108606;1273;22684;-74
2023/11/10 05:44:44;;;;;;;1.80;1.30;;;;;;;8.01;75.93;95738.06;108606;1275;22539;-74
2023/11/10 05:47:15;;;;;;;4.30;1.90;;;;;;;8.05;75.72;95737.98;108564;1275;22535;-74
2023/11/10 05:49:46;;;;;;;3.00;1.70;;;;;;;8.07;75.60;95735.95;108561;1275;22532;-74
2023/11/10 05:52:17;;;;;;;3.60;2.00;;;;;;;8.10;75.45;95738.60;108567;1275;22519;-74
2023/11/10 05:54:48;;;;;;;2.60;1.80;;;;;;;8.12;75.40;95741.11;108622;1275;22524;-74
2023/11/10 05:57:19;;;;;;;2.60;1.80;;;;;;;8.14;75.27;95739.66;108605;1275;22524;-74
2023/11/10 05:59:50;;;;;;;3.70;2.00;;;;;;;8.17;75.30;95735.13;108592;1275;22549;-74
2023/11/10 06:02:22;;;;;;;3.00;1.40;;;;;;;8.17;75.11;95728.81;108564;1272;24352;-74
2023/11/10 06:04:53;;;;;;;2.10;1.80;;;;;;;8.18;75.15;95733.39;108604;1275;22660;-74
2023/11/10 06:07:24;;;;;;;3.20;1.70;;;;;;;8.19;75.14;95735.05;108554;1269;22540;-75
2023/11/10 06:09:56;;;;;;;2.60;1.60;;;;;;;8.19;75.14;95737.13;108606;1269;24268;-74
2023/11/10 06:12:27;;;;;;;2.50;1.70;;;;;;;8.18;75.16;95741.80;108584;1274;26927;-74
2023/11/10 06:14:59;;;;;;;3.30;1.80;;;;;;;8.17;75.14;95749.23;108586;1275;22528;-74
2023/11/10 06:17:31;;;;;;;2.40;1.80;;;;;;;8.18;75.07;95747.49;108568;1275;25518;-74
2023/11/10 06:20:04;;;;;;;3.60;1.90;;;;;;;8.16;74.97;95747.34;108583;1275;22530;-74
2023/11/10 06:22:36;;;;;;;3.90;2.10;;;;;;;8.15;75.05;95747.60;108564;1275;22609;-74
2023/11/10 06:25:10;;;;;;;3.20;1.80;;;;;;;8.15;75.09;95744.80;108590;1275;22541;-74
2023/11/10 06:27:41;;;;;;;3.10;1.80;;;;;;;8.13;75.02;95741.25;108603;1275;22530;-74
2023/11/10 06:30:15;;;;;;;4.20;2.10;;;;;;;8.15;75.19;95744.39;108598;1271;24190;-74
2023/11/10 06:32:46;;;;;;;3.70;2.10;;;;;;;8.19;75.18;95745.52;108685;1274;23096;-74
2023/11/10 06:35:17;;;;;;;3.10;1.70;;;;;;;8.26;75.08;95738.06;108605;1274;25205;-74
2023/11/10 06:37:48;;;;;;;2.90;1.90;;;;;;;8.31;74.96;95734.58;108595;1268;22560;-74
2023/11/10 06:40:19;;;;;;;2.40;1.70;;;;;;;8.36;74.85;95736.34;108600;1275;22532;-74
2023/11/10 06:42:50;;;;;;;3.10;1.90;;;;;;;8.38;74.65;95734.83;108557;1272;24118;-74
2023/11/10 06:45:22;;;;;;;3.50;2.30;;;;;;;8.40;74.63;95737.34;108599;1271;22542;-74
2023/11/10 06:47:53;;;;;;;4.80;2.20;;;;;;;8.39;74.54;95737.88;108640;1271;22537;-74
2023/11/10 06:50:24;;;;;;;3.60;2.10;;;;;;;8.36;74.60;95738.81;108575;1275;22846;-74
2023/11/10 06:52:55;;;;;;;5.50;2.10;;;;;;;8.37;74.58;95748.70;108599;1275;22568;-74
2023/11/10 06:55:26;;;;;;;4.10;2.20;;;;;;;8.34;74.58;95747.71;108567;1271;25365;-74
2023/11/10 06:57:58;;;;;;;2.90;2.00;;;;;;;8.36;74.71;95746.02;108584;1275;25494;-74
2023/11/10 07:00:29;;;;;;;3.20;1.60;;;;;;;8.37;74.72;95744.77;108593;1275;22520;-74
2023/11/10 07:03:01;;;;;;;3.70;2.40;;;;;;;8.37;74.75;95743.30;108576;1275;22608;-74
2023/11/10 07:05:32;;;;;;;4.80;2.00;;;;;;;8.38;74.85;95741.02;108589;1275;22510;-74
2023/11/10 07:08:09;;;;;;;4.60;1.80;;;;;;;8.40;74.85;95742.09;108588;1274;24449;-74
2023/11/10 07:10:44;;;;;;;3.20;2.30;;;;;;;8.44;74.88;95742.14;108620;1275;24261;-74
2023/11/10 07:13:15;;;;;;;2.60;1.90;;;;;;;8.51;74.80;95737.19;108617;1252;22527;-74
2023/11/10 07:15:46;;;;;;;2.60;2.10;;;;;;;8.53;74.83;95734.67;108601;1272;22549;-74
2023/11/10 07:18:18;;;;;;;3.50;2.30;;;;;;;8.58;74.83;95736.03;108614;1275;24328;-74
2023/11/10 07:20:49;;;;;;;3.20;2.10;;;;;;;8.61;74.65;95735.95;108606;1275;24292;-74
2023/11/10 07:23:20;;;;;;;3.90;2.20;;;;;;;8.62;74.55;95734.77;108612;1275;22510;-74
2023/11/10 07:25:52;;;;;;;4.90;2.50;;;;;;;8.64;74.71;95739.06;108565;1275;22915;-74
2023/11/10 07:28:23;;;;;;;5.00;2.30;;;;;;;8.66;74.63;95741.30;108599;1275;22547;-74
2023/11/10 07:30:54;;;;;;;3.90;2.10;;;;;;;8.69;74.65;95737.02;108612;1267;22550;-74
2023/11/10 07:33:25;;;;;;;3.40;2.10;;;;;;;8.79;74.49;95734.03;108571;1271;22616;-74
2023/11/10 07:35:56;;;;;;;3.90;2.80;;;;;;;8.84;74.56;95735.20;108605;1272;22530;-74
2023/11/10 07:38:28;;;;;;;3.90;2.10;;;;;;;8.89;74.40;95730.76;108591;1271;24575;-74
2023/11/10 07:40:59;;;;;;;4.10;2.50;;;;;;;8.94;74.33;95729.56;108607;1275;25301;-74
2023/11/10 07:43:30;;;;;;;4.60;2.60;;;;;;;8.98;74.43;95729.02;108582;1271;22528;-74
2023/11/10 07:46:04;;;;;;;6.00;2.80;;;;;;;9.00;74.19;95731.70;108623;1275;22549;-74
2023/11/10 07:48:37;;;;;;;4.40;2.70;;;;;;;9.02;74.19;95733.27;108600;1271;22551;-74
2023/11/10 07:51:08;;;;;;;3.90;2.30;;;;;;;9.05;74.11;95735.05;108593;1272;24269;-74
2023/11/10 07:53:40;;;;;;;4.00;2.30;;;;;;;9.11;73.99;95738.86;108575;1272;23753;-74
2023/11/10 07:56:11;;;;;;;3.50;2.50;;;;;;;9.19;73.97;95736.40;108618;1268;22558;-74
2023/11/10 07:58:42;;;;;;;4.00;2.20;;;;;;;9.28;73.92;95734.35;108587;1275;22638;-74
2023/11/10 08:01:13;;;;;;;3.90;2.10;;;;;;;9.34;74.06;95730.70;108598;1275;22729;-74
2023/11/10 08:03:45;;;;;;;4.90;2.50;;;;;;;9.39;73.80;95729.65;108602;1275;22547;-75
2023/11/10 08:06:16;;;;;;;3.40;2.10;;;;;;;9.43;73.69;95726.35;108579;1272;22630;-74
2023/11/10 08:08:51;;;;;;;3.50;2.60;;;;;;;9.45;73.55;95728.02;108613;1272;25159;-74
2023/11/10 08:11:22;;;;;;;3.10;2.00;;;;;;;9.46;73.18;95733.83;108615;1275;22550;-74
2023/11/10 08:13:54;;;;;;;6.10;2.90;;;;;;;9.43;73.16;95734.19;108536;1274;22518;-74
2023/11/10 08:16:25;;;;;;;3.90;2.70;;;;;;;9.40;73.39;95736.35;108617;1272;24292;-75
2023/11/10 08:18:56;;;;;;;4.40;2.50;;;;;;;9.38;73.44;95731.20;108604;1275;22559;-74
2023/11/10 08:21:27;;;;;;;5.50;3.00;;;;;;;9.36;73.11;95733.05;108570;1272;22551;-74
2023/11/10 08:23:59;;;;;;;4.90;2.90;;;;;;;9.36;72.97;95735.21;108589;1275;22752;-74
2023/11/10 08:26:30;;;;;;;4.60;2.50;;;;;;;9.36;72.94;95731.30;108638;1275;24216;-74
2023/11/10 08:29:01;;;;;;;4.80;2.60;;;;;;;9.38;73.00;95733.69;108579;1275;25330;-75
2023/11/10 08:31:32;;;;;;;4.80;2.60;;;;;;;9.39;73.03;95744.73;108572;1275;22521;-74
2023/11/10 08:34:03;;;;;;;3.20;2.10;;;;;;;9.41;73.14;95743.00;108547;1272;22528;-74
2023/11/10 08:36:35;;;;;;;4.90;2.70;;;;;;;9.44;73.06;95742.70;108605;1275;22524;-74
2023/11/10 08:39:06;;;;;;;5.70;2.60;;;;;;;9.48;73.09;95742.77;108608;1275;24270;-74
2023/11/10 08:41:38;;;;;;;5.10;2.70;;;;;;;9.52;73.19;95745.23;108559;1267;22528;-74
2023/11/10 08:44:09;;;;;;;3.80;2.60;;;;;;;9.56;73.07;95743.52;108628;1275;22532;-74
2023/11/10 08:46:41;;;;;;;4.30;2.30;;;;;;;9.58;72.87;95733.55;108585;1275;22522;-74
2023/11/10 08:49:13;;;;;;;4.30;2.80;;;;;;;9.62;72.93;95737.39;108630;1275;22561;-74
2023/11/10 08:51:44;;;;;;;3.60;2.50;;;;;;;9.65;72.91;95732.69;108570;1275;25303;-74
2023/11/10 08:54:16;;;;;;;4.50;2.70;;;;;;;9.66;72.77;95738.27;108614;1275;22640;-74
2023/11/10 08:56:47;;;;;;;4.90;2.90;;;;;;;9.67;72.91;95740.47;108613;1275;22531;-74
2023/11/10 08:59:18;;;;;;;5.40;2.70;;;;;;;9.69;72.72;95740.11;108593;1275;22529;-74
2023/11/10 09:01:51;;;;;;;5.20;2.60;;;;;;;9.72;72.73;95738.17;108615;1275;25301;-74
2023/11/10 09:04:22;;;;;;;6.30;2.80;;;;;;;9.74;72.71;95733.90;108611;1271;25271;-74
2023/11/10 09:06:54;;;;;;;4.80;2.80;;;;;;;9.77;72.77;95734.09;108607;1275;24367;-74
2023/11/10 09:09:25;;;;;;;4.70;2.80;;;;;;;9.80;72.78;95733.40;108576;1270;22525;-74
2023/11/10 09:11:57;;;;;;;6.80;3.40;;;;;;;9.82;72.77;95729.11;108554;1275;22637;-74
2023/11/10 09:14:28;;;;;;;5.60;3.00;;;;;;;9.87;72.96;95722.48;108677;1271;22538;-74
2023/11/10 09:17:02;;;;;;;5.80;3.50;;;;;;;9.91;73.00;95720.60;108655;1272;22543;-74
2023/11/10 09:19:33;;;;;;;5.30;3.00;;;;;;;9.98;72.83;95718.12;108594;1273;22525;-74
2023/11/10 09:22:04;;;;;;;6.20;3.50;;;;;;;10.13;72.91;95726.23;108543;1267;22641;-74
2023/11/10 09:24:36;;;;;;;6.80;3.50;;;;;;;10.31;72.67;95719.85;108631;1271;22528;-74
2023/11/10 09:27:07;;;;;;;4.90;3.50;;;;;;;10.47;72.62;95726.88;108588;1275;23529;-75
2023/11/10 09:29:39;;;;;;;5.60;3.30;;;;;;;10.60;72.59;95725.46;108590;1275;22520;-75
2023/11/10 09:32:11;;;;;;;5.80;3.60;;;;;;;10.67;72.26;95725.98;108583;1260;22636;-74
2023/11/10 09:34:43;;;;;;;6.70;2.60;;;;;;;10.78;72.40;95724.73;108667;1275;25506;-74
2023/11/10 09:37:14;;;;;;;4.30;2.70;;;;;;;10.87;72.22;95722.09;108620;1272;24518;-74
2023/11/10 09:39:47;;;;;;;4.30;2.70;;;;;;;10.94;71.90;95721.91;108626;1275;22542;-74
2023/11/10 09:42:18;;;;;;;4.40;3.00;;;;;;;10.96;71.46;95722.36;108597;1275;22537;-74
2023/11/10 09:44:55;;;;;;;5.80;3.40;;;;;;;10.93;71.08;95721.41;108574;1267;22541;-74
2023/11/10 09:47:27;;;;;;;4.70;2.70;;;;;;;10.95;70.80;95718.84;108595;1271;23897;-74
2023/11/10 09:49:59;;;;;;;6.00;3.00;;;;;;;10.95;70.65;95713.30;108595;1272;24262;-75
2023/11/10 09:52:34;;;;;;;6.00;3.20;;;;;;;10.98;70.55;95717.06;108591;1275;23932;-74
2023/11/10 09:55:09;;;;;;;4.20;2.90;;;;;;;10.98;70.48;95717.80;108658;1269;22530;-74
2023/11/10 09:57:41;;;;;;;4.90;3.10;;;;;;;10.96;70.38;95717.52;108611;1275;22537;-75
2023/11/10 10:00:14;;;;;;;3.80;2.30;;;;;;;11.03;70.55;95711.31;108610;1275;22531;-74
2023/11/10 10:02:46;;;;;;;4.00;2.70;;;;;;;11.09;70.40;95710.80;108644;1275;22534;-74
2023/11/10 10:05:20;;;;;;;4.10;2.60;;;;;;;11.08;70.13;95708.11;108609;1275;22551;-74
2023/11/10 10:07:52;;;;;;;6.70;2.60;;;;;;;11.02;69.77;95701.91;108612;1275;22547;-73
2023/11/10 10:10:25;;;;;;;4.50;2.40;;;;;;;10.97;69.64;95703.46;108582;1275;22573;-74
2023/11/10 10:12:56;;;;;;;3.90;2.40;;;;;;;10.92;69.57;95699.97;108589;1275;22522;-74
2023/11/10 10:15:32;;;;;;;4.80;2.70;;;;;;;10.89;69.71;95701.05;108643;1275;24239;-74
2023/11/10 10:18:10;;;;;;;5.40;2.40;;;;;;;10.84;69.83;95700.27;108615;1275;22615;-74
2023/11/10 10:20:42;;;;;;;4.70;2.30;;;;;;;10.77;69.82;95700.42;108611;1275;25250;-74
2023/11/10 10:23:21;;;;;;;3.60;2.10;;;;;;;10.70;69.97;95698.58;108581;1275;24240;-73
2023/11/10 10:25:55;;;;;;;4.40;2.20;;;;;;;10.62;70.22;95695.58;108594;1275;24930;-74
2023/11/10 10:28:29;;;;;;;5.40;2.60;;;;;;;10.59;70.34;95697.84;108577;1275;22539;-74
2023/11/10 10:31:00;;;;;;;4.50;2.40;;;;;;;10.54;70.75;95688.48;108614;1275;22637;-74
2023/11/10 10:33:31;;;;;;;4.60;2.10;;;;;;;10.49;70.65;95689.45;108562;1275;22534;-74
2023/11/10 10:36:04;;;;;;;3.60;2.20;;;;;;;10.45;70.37;95685.65;108619;1275;22543;-74
2023/11/10 10:38:36;;;;;;;3.00;1.80;;;;;;;10.43;70.44;95685.17;108594;1263;22609;-74
2023/11/10 10:41:14;;;;;;;3.90;2.20;;;;;;;10.44;70.54;95682.38;108624;1270;24268;-74
2023/11/10 10:43:53;;;;;;;4.30;2.30;;;;;;;10.46;70.24;95675.91;108630;1275;22541;-74
2023/11/10 10:46:24;;;;;;;5.10;2.40;;;;;;;10.53;70.38;95677.29;108585;1269;22539;-74
2023/11/10 10:48:57;;;;;;;2.60;1.90;;;;;;;10.59;70.50;95677.48;108609;1275;22687;-74
2023/11/10 10:51:31;;;;;;;2.90;1.90;;;;;;;10.62;70.09;95672.00;108589;1267;22523;-74
2023/11/10 10:54:05;;;;;;;3.30;1.90;;;;;;;10.61;70.02;95669.34;108591;1275;25255;-74
2023/11/10 10:56:39;;;;;;;3.10;1.80;;;;;;;10.60;69.78;95670.19;108628;1260;22649;-74
2023/11/10 10:59:10;;;;;;;3.30;1.90;;;;;;;10.60;69.71;95663.98;108570;1273;22532;-74
2023/11/10 11:01:43;;;;;;;3.00;1.70;;;;;;;10.56;69.46;95664.08;108597;1275;22536;-74
2023/11/10 11:04:36;;;;;;;2.30;1.70;;;;;;;10.55;69.47;95660.85;108604;1275;25252;-73
2023/11/10 11:07:35;;;;;;;2.10;1.70;;;;;;;10.59;69.56;95655.05;108606;1275;22664;-74
2023/11/10 11:10:28;;;;;;;2.60;1.80;;;;;;;10.57;69.32;95660.45;108632;1275;25223;-74
2023/11/10 11:13:29;;;;;;;2.30;1.60;;;;;;;10.56;69.49;95654.96;108623;1275;25352;-74
2023/11/10 11:16:22;;;;;;;3.20;2.00;;;;;;;10.59;69.67;95647.20;108612;1275;22557;-75
2023/11/10 11:19:22;;;;;;;3.30;2.00;;;;;;;10.62;69.62;95640.23;108575;1275;22556;-74
2023/11/10 11:21:56;;;;;;;2.40;1.70;;;;;;;10.63;69.67;95643.23;108556;1275;22527;-75
2023/11/10 11:24:30;;;;;;;2.40;1.70;;;;;;;10.67;69.70;95644.55;108646;1272;26462;-74
2023/11/10 11:27:07;;;;;;;2.50;1.70;;;;;;;10.68;69.81;95641.35;108560;1272;22529;-74
2023/11/10 11:29:40;;;;;;;2.50;1.70;;;;;;;10.66;69.65;95642.19;108601;1275;22587;-74
2023/11/10 11:32:19;;;;;;;3.10;2.00;;;;;;;10.65;69.81;95639.53;108611;1274;26986;-74
2023/11/10 11:34:54;;;;;;;3.50;2.10;;;;;;;10.66;69.72;95643.53;108604;1272;22944;-74
2023/11/10 11:37:31;;;;;;;2.70;1.70;;;;;;;10.66;69.76;95645.73;108595;1275;22557;-74
2023/11/10 11:40:09;;;;;;;3.80;2.20;;;;;;;10.69;69.83;95642.83;108642;1275;22650;-74
2023/11/10 11:42:41;;;;;;;3.40;2.30;;;;;;;10.71;69.95;95640.46;108592;1272;22654;-74
2023/11/10 11:45:16;;;;;;;3.20;2.20;;;;;;;10.74;70.29;95642.72;108516;1275;115559;-74
2023/11/10 11:47:50;;;;;;;2.20;1.60;;;;;;;10.75;70.12;95643.22;108584;1272;22530;-75
2023/11/10 11:50:24;;;;;;;3.40;1.80;;;;;;;10.67;69.79;95636.60;108511;1273;22567;-74
2023/11/10 11:52:56;;;;;;;4.20;1.90;;;;;;;10.64;69.83;95633.66;108572;1275;22625;-74
2023/11/10 11:55:27;;;;;;;2.90;2.00;;;;;;;10.61;69.70;95635.55;108623;1275;25262;-74